Terminal Aerodrome Forecast
Issued by NWS Wilmington, OH

Home | Current Version | Previous Version | Text Only | Print | Product List | Glossary On
Versions: 1 2 3 4 5 6 7 8 9 10 11 12 13 14 15 16 17 18 19 20 21 22
880
FTUS41 KILN 221120
TAFILN
TAF
KILN 221120Z 2212/2312 11004KT 5SM BR BKN150
     FM221300 08008KT P6SM FEW080 BKN150
     FM222100 06008KT P6SM VCSH OVC080
     FM230000 05009KT 3SM -SHRA OVC015
     FM230800 04010KT 2SM -SHRA OVC008=

USA.gov is the U.S. government's official web portal to all federal, state and local government web resources and services.